SEKCJA WYDRUKÓW, pokaż »

METAR EPBY 062330Z 26006KT 230V290 9999 -RA OVC002 02/02 Q1009=

METAR EPGD 062330Z 25005KT 8000 OVC004 01/01 Q1007 =

METAR EPKK 062330Z 24008KT 9999 OVC007 02/01 Q1011 =

METAR EPKT 062330Z 24009KT 4400 -SN BR OVC003 00/00 Q1011 =

METAR EPLB 062330Z 20006KT 4500 -SNRA BR BKN003 01/01 Q1010 =

METAR EPLL 062330Z 25008KT 4200 -RA BR OVC003 01/01 Q1009 =

METAR EPML 062330Z NIL=

METAR EPMO 062330Z VRB02KT 1800 -RASN BR OVC004 00/00 Q1008 =

METAR EPPO 062330Z 27008KT 6000 -DZ OVC003 02/02 Q1010 =

METAR EPRA 062330Z NIL=

METAR EPRZ 062330Z 21010KT 8000 -RA BKN007 02/01 Q1011 =

METAR EPSC 062330Z 26008KT 9999 FEW007 OVC014 02/01 Q1011 =

METAR EPSY 062330Z VRB01KT 1700 SN OVC002 M00/M00 Q1008=

METAR EPWA 062330Z 25003KT 4000 -SN BR SCT002 BKN010 00/00 Q1008
NOSIG=

METAR EPWR 062330Z 29009KT 9999 -RA SCT007 BKN008 02/01 Q1012 =

METAR EPZG 062330Z NIL=
 METAR EPGD
Lokalizacja:EPGD Gdańsk Lech Wałęsa
Czas:23:30 UTC
Średni kierunek wiatru:250 °
Średnia prędkość wiatru:5 węzłów
Widzialność:8 kilometrów
Pierwsza warstwa chmur:8/8, wysokość podstawy 400 FT
Temperatura powietrza:1 °C
Temperatura punktu rosy:1 °C
Ciśnienie QNH:1007 hPa